createdAt,value
2023-05-09T00:00:25.162Z,16.96
2023-05-09T00:02:30.491Z,16.95
2023-05-09T00:04:35.653Z,16.90
2023-05-09T00:06:40.496Z,16.89
2023-05-09T00:08:48.021Z,16.87
2023-05-09T00:10:53.900Z,16.86
2023-05-09T00:12:59.979Z,16.83
2023-05-09T00:15:08.478Z,16.73
2023-05-09T00:17:15.964Z,16.78
2023-05-09T00:19:21.609Z,16.76
2023-05-09T00:21:26.511Z,16.75
2023-05-09T00:23:31.415Z,16.75
2023-05-09T00:25:38.958Z,16.73
2023-05-09T00:27:43.922Z,16.75
2023-05-09T00:29:48.806Z,16.74
2023-05-09T00:31:53.737Z,16.70
2023-05-09T00:33:58.648Z,16.68
2023-05-09T00:36:03.594Z,16.58
2023-05-09T00:38:08.623Z,16.62
2023-05-09T00:40:14.780Z,16.56
2023-05-09T00:42:25.015Z,16.55
2023-05-09T00:44:30.008Z,16.57
2023-05-09T00:46:35.139Z,16.55
2023-05-09T00:48:39.894Z,16.51
2023-05-09T00:50:44.995Z,16.49
2023-05-09T00:52:49.731Z,16.47
2023-05-09T00:54:55.003Z,16.48
2023-05-09T00:57:00.674Z,16.48
2023-05-09T00:59:09.207Z,16.57
2023-05-09T01:01:14.360Z,16.55
2023-05-09T01:03:19.178Z,16.52
2023-05-09T01:05:27.998Z,16.53
2023-05-09T01:07:41.040Z,16.55
2023-05-09T01:09:53.737Z,16.51
2023-05-09T01:12:09.503Z,16.45
2023-05-09T01:14:28.619Z,16.44
2023-05-09T01:16:41.766Z,16.47
2023-05-09T01:18:52.844Z,16.47
2023-05-09T01:21:04.870Z,16.53
2023-05-09T01:23:31.568Z,16.51
2023-05-09T01:25:58.726Z,16.56
2023-05-09T01:28:15.642Z,16.56
2023-05-09T01:30:23.808Z,16.52
2023-05-09T01:32:31.015Z,16.52
2023-05-09T01:34:37.873Z,16.46
2023-05-09T01:36:45.272Z,16.43
2023-05-09T01:38:53.344Z,16.45
2023-05-09T01:41:01.193Z,16.45
2023-05-09T01:43:10.836Z,16.43
2023-05-09T01:45:17.467Z,16.43
2023-05-09T01:47:26.474Z,16.45
2023-05-09T01:49:34.180Z,16.49
2023-05-09T01:51:43.596Z,16.52
2023-05-09T01:53:52.793Z,16.49
2023-05-09T01:55:59.691Z,16.48
2023-05-09T01:58:07.744Z,16.46
2023-05-09T02:00:16.090Z,16.45
2023-05-09T02:02:26.271Z,16.48
2023-05-09T02:04:32.114Z,16.46
2023-05-09T02:06:40.581Z,16.43
2023-05-09T02:08:46.614Z,16.47
2023-05-09T02:10:53.327Z,16.39
2023-05-09T02:12:58.704Z,16.39
2023-05-09T02:15:03.874Z,16.37
2023-05-09T02:17:10.118Z,16.33
2023-05-09T02:19:17.689Z,16.38
2023-05-09T02:21:22.938Z,16.34
2023-05-09T02:23:27.913Z,16.33
2023-05-09T02:25:33.151Z,16.29
2023-05-09T02:27:39.305Z,16.20
2023-05-09T02:29:47.682Z,16.16
2023-05-09T02:31:55.955Z,16.23
2023-05-09T02:34:02.151Z,16.24
2023-05-09T02:36:12.095Z,16.25
2023-05-09T02:38:20.429Z,16.25
2023-05-09T02:40:26.144Z,16.31
2023-05-09T02:42:32.154Z,16.33
2023-05-09T02:44:39.041Z,16.29
2023-05-09T02:46:44.039Z,16.23
2023-05-09T02:48:49.501Z,16.19
2023-05-09T02:50:54.448Z,16.19
2023-05-09T02:53:01.993Z,16.14
2023-05-09T02:55:08.062Z,16.04
2023-05-09T02:57:16.544Z,16.01
2023-05-09T02:59:21.885Z,15.96
2023-05-09T03:01:27.171Z,15.93
2023-05-09T03:03:34.324Z,15.91
2023-05-09T03:05:41.856Z,15.93
2023-05-09T03:07:47.592Z,15.93
2023-05-09T03:09:55.062Z,15.96
2023-05-09T03:12:00.552Z,15.86
2023-05-09T03:14:05.575Z,15.81
2023-05-09T03:16:10.776Z,15.73
2023-05-09T03:18:15.770Z,15.62
2023-05-09T03:20:20.755Z,15.58
2023-05-09T03:22:25.721Z,15.50
2023-05-09T03:24:36.510Z,15.50
2023-05-09T03:26:43.982Z,15.45
2023-05-09T03:28:49.545Z,15.45
2023-05-09T03:30:54.190Z,15.43
2023-05-09T03:33:02.651Z,15.37
2023-05-09T03:35:07.947Z,15.43
2023-05-09T03:37:13.465Z,15.45
2023-05-09T03:39:20.787Z,15.45
2023-05-09T03:41:29.911Z,15.43
2023-05-09T03:43:37.860Z,15.46
2023-05-09T03:45:43.684Z,15.44
2023-05-09T03:47:49.785Z,15.43
2023-05-09T03:49:55.038Z,15.39
2023-05-09T03:52:01.339Z,15.44
2023-05-09T03:54:06.518Z,15.39
2023-05-09T03:56:12.418Z,15.40
2023-05-09T03:58:23.651Z,15.40
2023-05-09T04:00:31.242Z,15.32
2023-05-09T04:02:45.048Z,15.32
2023-05-09T04:04:58.910Z,15.31
2023-05-09T04:07:03.935Z,15.31
2023-05-09T04:09:09.789Z,15.31
2023-05-09T04:11:15.137Z,15.32
2023-05-09T04:13:25.879Z,15.35
2023-05-09T04:15:33.779Z,15.36
2023-05-09T04:17:38.821Z,15.38
2023-05-09T04:19:43.625Z,15.34
2023-05-09T04:21:48.579Z,15.39
2023-05-09T04:23:53.643Z,15.42
2023-05-09T04:26:06.423Z,15.39
2023-05-09T04:28:11.876Z,15.35
2023-05-09T04:30:18.597Z,15.34
2023-05-09T04:32:27.571Z,15.38
2023-05-09T04:34:33.587Z,15.39
2023-05-09T04:36:44.758Z,15.40
2023-05-09T04:38:49.687Z,15.37
2023-05-09T04:40:59.459Z,15.38
2023-05-09T04:43:04.491Z,15.42
2023-05-09T04:45:11.920Z,15.43
2023-05-09T04:47:17.297Z,15.44
2023-05-09T04:49:24.987Z,15.46
2023-05-09T04:51:29.909Z,15.44
2023-05-09T04:53:34.895Z,15.48
2023-05-09T04:55:39.952Z,15.49
2023-05-09T04:57:44.908Z,15.54
2023-05-09T04:59:49.931Z,15.55
2023-05-09T05:01:54.962Z,15.61
2023-05-09T05:04:00.097Z,15.63
2023-05-09T05:06:08.039Z,15.67
2023-05-09T05:08:14.746Z,15.72
2023-05-09T05:10:21.007Z,15.75
2023-05-09T05:12:31.178Z,15.74
2023-05-09T05:14:36.538Z,15.79
2023-05-09T05:16:43.204Z,15.80
2023-05-09T05:18:48.047Z,15.79
2023-05-09T05:20:53.932Z,15.78
2023-05-09T05:23:01.848Z,15.78
2023-05-09T05:25:07.378Z,15.82
2023-05-09T05:27:14.482Z,15.82
2023-05-09T05:29:22.140Z,15.84
2023-05-09T05:31:27.176Z,15.84
2023-05-09T05:33:32.243Z,15.89
2023-05-09T05:35:40.808Z,15.88
2023-05-09T05:37:48.948Z,15.85
2023-05-09T05:39:57.602Z,15.79
2023-05-09T05:42:03.600Z,15.78
2023-05-09T05:44:08.833Z,15.74
2023-05-09T05:46:13.738Z,15.70
2023-05-09T05:48:18.820Z,15.74
2023-05-09T05:50:25.193Z,15.82
2023-05-09T05:52:31.465Z,15.90
2023-05-09T05:54:38.696Z,16.01
2023-05-09T05:56:46.225Z,16.09
2023-05-09T05:58:51.362Z,16.17
2023-05-09T06:00:57.126Z,16.07
2023-05-09T06:03:02.175Z,16.10
2023-05-09T06:05:19.040Z,16.21
2023-05-09T06:07:23.978Z,16.09
2023-05-09T06:09:30.316Z,16.20
2023-05-09T06:11:35.260Z,16.27
2023-05-09T06:13:47.683Z,16.32
2023-05-09T06:15:52.781Z,16.24
2023-05-09T06:17:57.726Z,16.19
2023-05-09T06:20:02.684Z,16.18
2023-05-09T06:22:07.584Z,16.10
2023-05-09T06:24:23.470Z,16.04
2023-05-09T06:26:37.112Z,15.97
2023-05-09T06:28:47.487Z,15.87
2023-05-09T06:30:53.250Z,15.84
2023-05-09T06:32:58.594Z,15.86
2023-05-09T06:35:03.580Z,15.93
2023-05-09T06:37:08.756Z,15.93
2023-05-09T06:39:13.812Z,16.01
2023-05-09T06:41:18.574Z,16.09
2023-05-09T06:43:23.503Z,16.28
2023-05-09T06:45:31.315Z,16.40
2023-05-09T06:47:36.461Z,16.51
2023-05-09T06:49:41.399Z,16.69
2023-05-09T06:51:46.295Z,16.86
2023-05-09T06:53:51.275Z,17.00
2023-05-09T06:55:56.297Z,17.15
2023-05-09T06:58:01.274Z,17.30
2023-05-09T07:00:07.305Z,17.40
2023-05-09T07:02:14.777Z,17.47
2023-05-09T07:04:22.070Z,17.49
2023-05-09T07:06:27.137Z,17.41
2023-05-09T07:08:32.135Z,17.46
2023-05-09T07:10:38.562Z,17.56
2023-05-09T07:12:44.167Z,17.51
2023-05-09T07:14:49.138Z,17.59
2023-05-09T07:16:56.504Z,17.65
2023-05-09T07:19:09.879Z,17.65
2023-05-09T07:21:14.909Z,17.64
2023-05-09T07:23:22.386Z,17.51
2023-05-09T07:25:27.454Z,17.49
2023-05-09T07:27:32.347Z,17.55
2023-05-09T07:29:37.548Z,17.51
2023-05-09T07:31:44.468Z,17.55
2023-05-09T07:33:49.388Z,17.61
2023-05-09T07:35:56.966Z,17.62
2023-05-09T07:38:01.984Z,17.60
2023-05-09T07:40:08.307Z,17.62
2023-05-09T07:42:13.449Z,17.68
2023-05-09T07:44:18.062Z,17.65
2023-05-09T07:46:23.261Z,17.73
2023-05-09T07:48:28.069Z,17.72
2023-05-09T07:50:33.036Z,17.75
2023-05-09T07:52:40.664Z,17.84
2023-05-09T07:54:45.588Z,17.82
2023-05-09T07:56:50.317Z,17.73
2023-05-09T07:58:55.777Z,17.86
2023-05-09T08:01:01.005Z,17.94
2023-05-09T08:03:05.802Z,17.94
2023-05-09T08:05:14.208Z,17.98
2023-05-09T08:07:21.275Z,18.08
2023-05-09T08:09:29.126Z,18.15
2023-05-09T08:11:36.196Z,18.21
2023-05-09T08:13:41.143Z,18.22
2023-05-09T08:15:46.199Z,18.28
2023-05-09T08:17:51.009Z,18.21
2023-05-09T08:19:56.045Z,18.37
2023-05-09T08:22:00.866Z,18.42
2023-05-09T08:24:08.181Z,18.55
2023-05-09T08:26:15.803Z,18.71
2023-05-09T08:28:22.189Z,18.76
2023-05-09T08:30:27.294Z,18.83
2023-05-09T08:32:32.135Z,18.82
2023-05-09T08:34:37.862Z,18.91
2023-05-09T08:36:47.239Z,18.95
2023-05-09T08:38:52.156Z,18.95
2023-05-09T08:41:02.585Z,18.95
2023-05-09T08:43:11.928Z,19.01
2023-05-09T08:45:19.582Z,19.15
2023-05-09T08:47:25.627Z,19.24
2023-05-09T08:49:30.953Z,19.26
2023-05-09T08:51:36.053Z,19.26
2023-05-09T08:53:40.740Z,19.27
2023-05-09T08:55:45.854Z,19.34
2023-05-09T08:57:52.517Z,19.39
2023-05-09T09:00:00.566Z,19.36
2023-05-09T09:02:09.184Z,19.30
2023-05-09T09:04:14.806Z,19.37
2023-05-09T09:06:20.309Z,19.53
2023-05-09T09:08:25.734Z,19.64
2023-05-09T09:10:34.787Z,19.68
2023-05-09T09:12:40.466Z,19.77
2023-05-09T09:14:49.503Z,19.87
2023-05-09T09:17:00.343Z,19.83
2023-05-09T09:19:07.965Z,19.89
2023-05-09T09:21:15.993Z,19.86
2023-05-09T09:23:24.874Z,19.75
2023-05-09T09:25:29.868Z,19.80
2023-05-09T09:27:35.783Z,19.85
2023-05-09T09:29:41.452Z,19.96
2023-05-09T09:31:48.735Z,19.86
2023-05-09T09:34:02.485Z,20.00
2023-05-09T09:36:08.789Z,20.05
2023-05-09T09:38:13.734Z,20.13
2023-05-09T09:40:18.628Z,20.07
2023-05-09T09:42:24.316Z,20.16
2023-05-09T09:44:30.687Z,20.22
2023-05-09T09:46:44.037Z,20.41
2023-05-09T09:48:53.019Z,20.47
2023-05-09T09:51:04.965Z,20.64
2023-05-09T09:53:09.871Z,20.57
2023-05-09T09:55:16.237Z,20.59
2023-05-09T09:57:37.268Z,20.61
2023-05-09T09:59:44.916Z,20.71
2023-05-09T10:02:00.395Z,20.88
2023-05-09T10:04:06.051Z,20.66
2023-05-09T10:06:18.596Z,20.67
2023-05-09T10:08:23.520Z,20.69
2023-05-09T10:10:32.363Z,20.72
2023-05-09T10:12:42.431Z,20.87
2023-05-09T10:14:47.899Z,21.00
2023-05-09T10:16:55.465Z,21.08
2023-05-09T10:19:00.540Z,21.05
2023-05-09T10:21:05.651Z,21.00
2023-05-09T10:23:14.292Z,20.93
2023-05-09T10:25:22.826Z,21.04
2023-05-09T10:27:31.385Z,21.02
2023-05-09T10:29:38.976Z,21.05
2023-05-09T10:31:46.539Z,21.10
2023-05-09T10:33:52.774Z,21.12
2023-05-09T10:36:03.652Z,21.15
2023-05-09T10:38:12.626Z,21.25
2023-05-09T10:40:22.649Z,21.32
2023-05-09T10:42:28.629Z,21.30
2023-05-09T10:44:33.978Z,21.29
2023-05-09T10:46:41.028Z,21.29
2023-05-09T10:48:46.708Z,21.34
2023-05-09T10:50:52.159Z,21.47
2023-05-09T10:53:14.314Z,21.55
2023-05-09T10:55:25.143Z,21.59
2023-05-09T10:57:31.389Z,21.63
2023-05-09T10:59:39.023Z,21.68
2023-05-09T11:01:44.102Z,21.66
2023-05-09T11:03:58.300Z,21.74
2023-05-09T11:06:03.309Z,21.78
2023-05-09T11:08:23.815Z,21.84
2023-05-09T11:10:45.386Z,21.92
2023-05-09T11:13:01.093Z,21.84
2023-05-09T11:15:11.065Z,21.86
2023-05-09T11:17:17.993Z,21.86
2023-05-09T11:19:37.896Z,21.98
2023-05-09T11:22:03.673Z,22.02
2023-05-09T11:24:19.994Z,21.91
2023-05-09T11:26:32.129Z,21.91
2023-05-09T11:28:38.999Z,21.97
2023-05-09T11:30:45.617Z,22.01
2023-05-09T11:32:55.329Z,22.08
2023-05-09T11:35:10.212Z,22.22
2023-05-09T11:37:16.476Z,22.23
2023-05-09T11:39:28.119Z,22.34
2023-05-09T11:41:44.086Z,22.38
2023-05-09T11:43:49.164Z,22.32
2023-05-09T11:45:54.060Z,22.33
2023-05-09T11:48:00.853Z,22.40
2023-05-09T11:50:06.067Z,22.43
2023-05-09T11:52:10.773Z,22.38
2023-05-09T11:54:15.673Z,22.39
2023-05-09T11:56:20.832Z,22.45
2023-05-09T11:58:31.421Z,22.52
2023-05-09T12:00:37.472Z,22.37
2023-05-09T12:02:42.818Z,22.41
2023-05-09T12:04:48.218Z,22.43
2023-05-09T12:06:53.336Z,22.44
2023-05-09T12:08:59.893Z,22.56
2023-05-09T12:11:11.433Z,22.64
2023-05-09T12:13:18.446Z,22.64
2023-05-09T12:15:25.987Z,22.68
2023-05-09T12:17:31.658Z,22.58
2023-05-09T12:19:37.337Z,22.63
2023-05-09T12:21:43.325Z,22.72
2023-05-09T12:23:51.693Z,22.74
2023-05-09T12:25:59.740Z,22.87
2023-05-09T12:28:04.741Z,22.82
2023-05-09T12:30:11.028Z,22.78
2023-05-09T12:32:22.265Z,22.81
2023-05-09T12:34:27.973Z,22.78
2023-05-09T12:36:37.907Z,22.86
2023-05-09T12:38:43.671Z,22.88
2023-05-09T12:40:51.852Z,22.91
2023-05-09T12:43:00.371Z,22.94
2023-05-09T12:45:06.149Z,22.90
2023-05-09T12:47:11.197Z,22.95
2023-05-09T12:49:25.582Z,23.01
2023-05-09T12:51:30.457Z,23.09
2023-05-09T12:53:41.906Z,23.00
2023-05-09T12:55:47.306Z,23.14
2023-05-09T12:58:02.565Z,23.27
2023-05-09T13:00:10.433Z,23.24
2023-05-09T13:02:16.466Z,23.27
2023-05-09T13:04:28.953Z,23.31
2023-05-09T13:06:34.880Z,23.31
2023-05-09T13:08:40.348Z,23.39
2023-05-09T13:10:45.294Z,23.41
2023-05-09T13:12:51.537Z,23.42
2023-05-09T13:14:56.542Z,23.53
2023-05-09T13:17:01.515Z,23.57
2023-05-09T13:19:06.587Z,23.64
2023-05-09T13:21:14.287Z,23.77
2023-05-09T13:23:19.240Z,23.87
2023-05-09T13:25:23.965Z,23.92
2023-05-09T13:27:29.287Z,24.01
2023-05-09T13:29:34.867Z,24.16
2023-05-09T13:31:39.812Z,24.22
2023-05-09T13:33:44.496Z,24.24
2023-05-09T13:35:49.515Z,24.32
2023-05-09T13:37:58.945Z,24.35
2023-05-09T13:40:07.336Z,24.44
2023-05-09T13:42:12.405Z,24.58
2023-05-09T13:44:17.156Z,24.56
2023-05-09T13:46:22.114Z,24.57
2023-05-09T13:48:27.296Z,24.49
2023-05-09T13:50:32.152Z,24.42
2023-05-09T13:52:37.163Z,24.44
2023-05-09T13:54:45.354Z,24.56
2023-05-09T13:56:51.379Z,24.65
2023-05-09T13:58:56.318Z,24.74
2023-05-09T14:01:01.212Z,24.71
2023-05-09T14:03:06.632Z,24.75
2023-05-09T14:05:12.477Z,24.76
2023-05-09T14:07:20.655Z,24.82
2023-05-09T14:09:28.729Z,24.79
2023-05-09T14:11:36.274Z,24.87
2023-05-09T14:13:41.448Z,24.97
2023-05-09T14:15:46.609Z,24.96
2023-05-09T14:17:51.721Z,25.10
2023-05-09T14:19:56.838Z,25.09
2023-05-09T14:22:01.741Z,25.26
2023-05-09T14:24:06.597Z,25.35
2023-05-09T14:26:11.566Z,25.39
2023-05-09T14:28:19.227Z,25.53
2023-05-09T14:30:25.827Z,25.53
2023-05-09T14:32:30.702Z,25.68
2023-05-09T14:34:35.611Z,25.66
2023-05-09T14:36:40.803Z,25.65
2023-05-09T14:38:47.021Z,25.60
2023-05-09T14:40:52.215Z,25.70
2023-05-09T14:42:59.643Z,25.63
2023-05-09T14:45:10.657Z,25.68
2023-05-09T14:47:17.120Z,25.52
2023-05-09T14:49:22.848Z,25.54
2023-05-09T14:51:28.408Z,25.59
2023-05-09T14:53:35.648Z,25.53
2023-05-09T14:55:40.622Z,25.46
2023-05-09T14:57:45.284Z,25.47
2023-05-09T14:59:50.228Z,25.40
2023-05-09T15:01:57.573Z,25.31
2023-05-09T15:04:02.557Z,25.26
2023-05-09T15:06:08.014Z,25.38
2023-05-09T15:08:13.048Z,25.61
2023-05-09T15:10:18.067Z,25.62
2023-05-09T15:12:23.669Z,25.61
2023-05-09T15:14:28.687Z,25.75
2023-05-09T15:16:33.469Z,25.62
2023-05-09T15:18:44.132Z,25.64
2023-05-09T15:20:49.191Z,25.47
2023-05-09T15:22:54.295Z,25.39
2023-05-09T15:24:59.245Z,25.47
2023-05-09T15:27:04.475Z,25.55
2023-05-09T15:29:09.696Z,25.59
2023-05-09T15:31:14.657Z,25.52
2023-05-09T15:33:22.269Z,25.45
2023-05-09T15:35:30.068Z,25.49
2023-05-09T15:37:35.848Z,25.39
2023-05-09T15:39:43.585Z,25.55
2023-05-09T15:41:51.479Z,25.65
2023-05-09T15:43:56.534Z,25.75
2023-05-09T15:46:01.561Z,25.69
2023-05-09T15:48:07.108Z,25.72
2023-05-09T15:50:13.053Z,25.94
2023-05-09T15:52:20.880Z,25.91
2023-05-09T15:54:26.489Z,25.95
2023-05-09T15:56:31.401Z,26.04
2023-05-09T15:58:36.984Z,25.99
2023-05-09T16:00:41.988Z,25.96
2023-05-09T16:02:47.061Z,25.95
2023-05-09T16:04:52.122Z,25.94
2023-05-09T16:06:57.347Z,26.12
2023-05-09T16:09:05.340Z,26.36
2023-05-09T16:11:10.449Z,26.17
2023-05-09T16:13:15.347Z,26.11
2023-05-09T16:15:20.797Z,26.01
2023-05-09T16:17:25.780Z,25.85
2023-05-09T16:19:33.714Z,25.72
2023-05-09T16:21:40.939Z,25.51
2023-05-09T16:23:45.862Z,25.33
2023-05-09T16:25:53.110Z,24.94
2023-05-09T16:27:58.041Z,24.76
2023-05-09T16:30:02.790Z,24.54
2023-05-09T16:32:08.454Z,24.22
2023-05-09T16:34:13.767Z,24.05
2023-05-09T16:36:18.964Z,23.91
2023-05-09T16:38:23.948Z,23.83
2023-05-09T16:40:28.724Z,23.73
2023-05-09T16:42:36.488Z,23.59
2023-05-09T16:44:41.471Z,23.49
2023-05-09T16:46:47.324Z,23.32
2023-05-09T16:48:54.038Z,23.16
2023-05-09T16:50:58.936Z,23.09
2023-05-09T16:53:05.019Z,23.11
2023-05-09T16:55:10.956Z,23.05
2023-05-09T16:57:16.171Z,22.96
2023-05-09T16:59:23.668Z,22.86
2023-05-09T17:01:29.339Z,22.93
2023-05-09T17:03:34.482Z,22.98
2023-05-09T17:05:39.188Z,22.94
2023-05-09T17:07:44.071Z,22.90
2023-05-09T17:09:49.896Z,22.85
2023-05-09T17:11:54.851Z,22.83
2023-05-09T17:13:59.755Z,22.85
2023-05-09T17:16:07.852Z,22.88
2023-05-09T17:18:17.033Z,22.90
2023-05-09T17:20:25.929Z,22.94
2023-05-09T17:22:30.938Z,22.85
2023-05-09T17:24:35.703Z,22.80
2023-05-09T17:26:40.723Z,22.76
2023-05-09T17:28:45.410Z,22.73
2023-05-09T17:30:50.500Z,22.75
2023-05-09T17:32:58.068Z,22.82
2023-05-09T17:35:03.376Z,22.83
2023-05-09T17:37:09.366Z,22.76
2023-05-09T17:39:14.363Z,22.69
2023-05-09T17:41:19.313Z,22.67
2023-05-09T17:43:24.626Z,22.57
2023-05-09T17:45:29.576Z,22.52
2023-05-09T17:47:34.498Z,22.47
2023-05-09T17:49:42.038Z,22.43
2023-05-09T17:51:47.506Z,22.34
2023-05-09T17:53:53.044Z,22.22
2023-05-09T17:55:58.044Z,22.03
2023-05-09T17:58:03.291Z,21.98
2023-05-09T18:00:15.015Z,21.86
2023-05-09T18:02:24.083Z,21.81
2023-05-09T18:04:31.262Z,21.76
2023-05-09T18:06:38.976Z,21.81
2023-05-09T18:08:44.019Z,21.83
2023-05-09T18:10:49.193Z,21.78
2023-05-09T18:12:54.116Z,21.70
2023-05-09T18:14:58.852Z,21.50
2023-05-09T18:17:03.777Z,21.43
2023-05-09T18:19:08.780Z,21.36
2023-05-09T18:21:14.122Z,21.33
2023-05-09T18:23:22.150Z,21.34
2023-05-09T18:25:27.671Z,21.28
2023-05-09T18:27:32.627Z,21.32
2023-05-09T18:29:37.558Z,21.32
2023-05-09T18:31:45.689Z,21.30
2023-05-09T18:33:50.692Z,21.25
2023-05-09T18:35:56.180Z,21.21
2023-05-09T18:38:01.121Z,21.13
2023-05-09T18:40:10.918Z,21.14
2023-05-09T18:42:16.538Z,21.09
2023-05-09T18:44:21.504Z,21.06
2023-05-09T18:46:28.085Z,21.03
2023-05-09T18:48:33.678Z,21.03
2023-05-09T18:50:38.609Z,20.96
2023-05-09T18:52:44.642Z,20.91
2023-05-09T18:54:49.695Z,20.91
2023-05-09T18:56:56.901Z,20.83
2023-05-09T18:59:01.838Z,20.75
2023-05-09T19:01:11.573Z,20.72
2023-05-09T19:03:16.864Z,20.73
2023-05-09T19:05:21.731Z,20.68
2023-05-09T19:07:26.790Z,20.66
2023-05-09T19:09:31.619Z,20.66
2023-05-09T19:11:36.465Z,20.63
2023-05-09T19:13:48.840Z,20.58
2023-05-09T19:15:53.890Z,20.60
2023-05-09T19:17:58.893Z,20.60
2023-05-09T19:20:04.175Z,20.52
2023-05-09T19:22:09.356Z,20.52
2023-05-09T19:24:14.274Z,20.53
2023-05-09T19:26:19.806Z,20.53
2023-05-09T19:28:24.972Z,20.56
2023-05-09T19:30:32.624Z,20.52
2023-05-09T19:32:37.643Z,20.52
2023-05-09T19:34:44.179Z,20.47
2023-05-09T19:36:49.644Z,20.50
2023-05-09T19:38:54.682Z,20.50
2023-05-09T19:40:59.639Z,20.49
2023-05-09T19:43:14.802Z,20.50
2023-05-09T19:45:22.331Z,20.46
2023-05-09T19:47:30.071Z,20.42
2023-05-09T19:49:35.329Z,20.44
2023-05-09T19:51:40.691Z,20.37
2023-05-09T19:53:54.279Z,20.40
2023-05-09T19:55:59.200Z,20.40
2023-05-09T19:58:04.261Z,20.37
2023-05-09T20:00:10.544Z,20.39
2023-05-09T20:02:16.931Z,20.37
2023-05-09T20:04:24.733Z,20.37
2023-05-09T20:06:30.329Z,20.40
2023-05-09T20:08:35.361Z,20.46
2023-05-09T20:10:40.152Z,20.44
2023-05-09T20:12:45.639Z,20.43
2023-05-09T20:14:50.534Z,20.43
2023-05-09T20:16:55.647Z,20.45
2023-05-09T20:19:00.344Z,20.43
2023-05-09T20:21:09.907Z,20.41
2023-05-09T20:23:14.986Z,20.39
2023-05-09T20:25:20.261Z,20.32
2023-05-09T20:27:25.233Z,20.29
2023-05-09T20:29:30.314Z,20.29
2023-05-09T20:31:35.075Z,20.20
2023-05-09T20:33:40.217Z,20.15
2023-05-09T20:35:45.381Z,20.08
2023-05-09T20:37:52.900Z,20.10
2023-05-09T20:39:57.848Z,20.08
2023-05-09T20:42:02.772Z,20.04
2023-05-09T20:44:08.363Z,20.03
2023-05-09T20:46:14.248Z,19.98
2023-05-09T20:48:22.655Z,19.96
2023-05-09T20:50:27.558Z,19.93
2023-05-09T20:52:32.683Z,19.94
2023-05-09T20:54:39.972Z,19.87
2023-05-09T20:56:44.858Z,19.81
2023-05-09T20:58:49.787Z,19.81
2023-05-09T21:00:54.820Z,19.83
2023-05-09T21:02:59.737Z,19.85
2023-05-09T21:05:04.711Z,19.86
2023-05-09T21:07:10.194Z,19.83
2023-05-09T21:09:15.095Z,19.76
2023-05-09T21:11:22.997Z,19.74
2023-05-09T21:13:28.113Z,19.73
2023-05-09T21:15:34.159Z,19.76
2023-05-09T21:17:39.252Z,19.76
2023-05-09T21:19:44.304Z,19.83
2023-05-09T21:21:49.225Z,19.86
2023-05-09T21:23:54.146Z,19.78
2023-05-09T21:25:59.084Z,19.78
2023-05-09T21:28:06.597Z,19.74
2023-05-09T21:30:12.572Z,19.71
2023-05-09T21:32:17.752Z,19.71
2023-05-09T21:34:22.897Z,19.64
2023-05-09T21:36:28.292Z,19.63
2023-05-09T21:38:33.188Z,19.65
2023-05-09T21:40:38.145Z,19.64
2023-05-09T21:42:44.269Z,19.62
2023-05-09T21:44:51.892Z,19.64
2023-05-09T21:46:56.858Z,19.61
2023-05-09T21:49:01.959Z,19.58
2023-05-09T21:51:07.741Z,19.53
2023-05-09T21:53:12.614Z,19.54
2023-05-09T21:55:19.039Z,19.53
2023-05-09T21:57:24.074Z,19.44
2023-05-09T21:59:29.537Z,19.42
2023-05-09T22:01:37.156Z,19.31
2023-05-09T22:03:42.204Z,19.33
2023-05-09T22:05:47.259Z,19.26
2023-05-09T22:07:53.663Z,19.23
2023-05-09T22:09:58.528Z,19.20
2023-05-09T22:12:04.197Z,19.18
2023-05-09T22:14:10.472Z,19.15
2023-05-09T22:16:15.430Z,18.98
2023-05-09T22:18:25.188Z,18.90
2023-05-09T22:20:30.486Z,18.87
2023-05-09T22:22:35.463Z,18.86
2023-05-09T22:24:41.754Z,18.88
2023-05-09T22:26:46.660Z,18.86
2023-05-09T22:28:51.779Z,18.83
2023-05-09T22:30:57.179Z,18.80
2023-05-09T22:33:02.864Z,18.82
2023-05-09T22:35:12.040Z,18.84
2023-05-09T22:37:17.015Z,18.82
2023-05-09T22:39:23.958Z,18.79
2023-05-09T22:41:28.695Z,18.72
2023-05-09T22:43:38.586Z,18.65
2023-05-09T22:45:44.492Z,18.59
2023-05-09T22:47:49.502Z,18.61
2023-05-09T22:49:54.512Z,18.58
2023-05-09T22:52:02.384Z,18.53
2023-05-09T22:54:07.397Z,18.50
2023-05-09T22:56:12.903Z,18.49
2023-05-09T22:58:17.959Z,18.45
2023-05-09T23:00:25.632Z,18.41
2023-05-09T23:02:30.371Z,18.37
2023-05-09T23:04:35.461Z,18.39
2023-05-09T23:06:40.458Z,18.41
2023-05-09T23:08:47.923Z,18.41
2023-05-09T23:10:52.978Z,18.43
2023-05-09T23:12:57.821Z,18.41
2023-05-09T23:15:02.786Z,18.43
2023-05-09T23:17:08.188Z,18.46
2023-05-09T23:19:13.313Z,18.48
2023-05-09T23:21:17.888Z,18.42
2023-05-09T23:23:25.566Z,18.39
2023-05-09T23:25:33.002Z,18.39
2023-05-09T23:27:40.771Z,18.42
2023-05-09T23:29:45.767Z,18.42
2023-05-09T23:31:50.965Z,18.37
2023-05-09T23:33:55.876Z,18.37
2023-05-09T23:36:00.851Z,18.32
2023-05-09T23:38:06.160Z,18.37
2023-05-09T23:40:12.308Z,18.37
2023-05-09T23:42:22.524Z,18.39
2023-05-09T23:44:27.506Z,18.39
2023-05-09T23:46:32.596Z,18.41
2023-05-09T23:48:37.640Z,18.45
2023-05-09T23:50:45.497Z,18.46
2023-05-09T23:52:51.291Z,18.46
2023-05-09T23:54:56.224Z,18.44
2023-05-09T23:57:01.141Z,18.41
2023-05-09T23:59:08.659Z,18.41
